Moon Tide — WDH3532 — position and weather

sailwx.info

Track history (hours):
 
Tides and Currents Weather Stations Pressure Air Temp Water Temp Dewpoint Dewpoint Depression Visibility Wind Speed Wind Dir Waves Ship Positions

Moon Tide

Owner: Nelson, Carl, Cambridge, MA. More information available from US FCC via Universal Licensing System and Coast Guard Vessel Documentation Center.

Last reported at 2017-Sep-26 16:07 UTC. Time now 2017-Oct-18 20:33 UTC.
Position N 36°45' W 076°18'.
Warning: this ship's position is 22 days out of date.

Length 19 m.

Type: Sailing vessel. MMSI: 367608290.

Date/timePositionNaut miles runAvg speedWind from/ knotsBaromVisibWave heightAir tempDewpointWater temp
2017-Sep-26 16:07N 36°45' W 076°18'1 8.4
2017-Sep-26 16:00N 36°46' W 076°18'1 2.2
2017-Sep-26 15:30N 36°47' W 076°18'2 4.3
2017-Sep-26 15:00N 36°49' W 076°17'1 2.2
2017-Sep-26 14:28N 36°50' W 076°18'0 0.0
2017-Sep-26 13:58N 36°50' W 076°18'0 0.0
2017-Sep-26 13:28N 36°50' W 076°18'0 0.0
2017-Sep-26 12:58N 36°50' W 076°18'0 0.0
2017-Sep-26 12:28N 36°50' W 076°18'0 0.0
2017-Sep-26 11:58N 36°50' W 076°18'0 0.0
2017-Sep-26 11:28N 36°50' W 076°18'0 0.0
2017-Sep-26 10:58N 36°50' W 076°18'0 0.0
2017-Sep-26 10:28N 36°50' W 076°18'0 0.0
2017-Sep-26 09:58N 36°50' W 076°18'0 0.0
2017-Sep-26 09:28N 36°50' W 076°18'0 0.0
2017-Sep-26 08:58N 36°50' W 076°18'0 0.0
2017-Sep-26 08:28N 36°50' W 076°18'0 0.0
2017-Sep-26 07:58N 36°50' W 076°18'0 0.0
2017-Sep-26 07:28N 36°50' W 076°18'0 0.0
2017-Sep-26 06:58N 36°50' W 076°18'0 0.0
2017-Sep-26 06:28N 36°50' W 076°18'0 0.0
2017-Sep-26 05:58N 36°50' W 076°18'0 0.0
2017-Sep-26 05:28N 36°50' W 076°18'0 0.0
2017-Sep-26 04:58N 36°50' W 076°18'0 0.0
2017-Sep-26 04:28N 36°50' W 076°18'0 0.0
2017-Sep-26 03:58N 36°50' W 076°18'0 0.0
2017-Sep-26 03:28N 36°50' W 076°18'0 0.0
2017-Sep-26 02:58N 36°50' W 076°18'0 0.0
2017-Sep-26 02:28N 36°50' W 076°18'0 0.0
2017-Sep-26 01:58N 36°50' W 076°18'0 0.0
2017-Sep-26 01:28N 36°50' W 076°18'0 0.0
2017-Sep-26 00:58N 36°50' W 076°18'0 0.0
2017-Sep-26 00:28N 36°50' W 076°18'0 0.0
2017-Sep-25 23:58N 36°50' W 076°18'0 0.0
2017-Sep-25 23:28N 36°50' W 076°18'0 0.0
2017-Sep-25 22:58N 36°50' W 076°18'0 0.0
2017-Sep-25 22:28N 36°50' W 076°18'0 0.0
2017-Sep-25 21:58N 36°50' W 076°18'0 0.0
2017-Sep-25 21:28N 36°50' W 076°18'1 1.1
2017-Sep-25 20:44N 36°51' W 076°18'2 7.7
2017-Sep-25 20:28N 36°52' W 076°20'57 8.0
2017-Sep-25 13:24N 37°48' W 076°12'4 8.9
2017-Sep-25 13:00N 37°52' W 076°11'13 1.3
2017-Sep-25 03:17N 38°03' W 076°20'0 0.0
2017-Sep-25 02:59N 38°03' W 076°20'40 4.1
2017-Sep-24 17:04N 38°43' W 076°26'1 9.0
2017-Sep-24 17:00N 38°44' W 076°26'5 9.4
2017-Sep-24 16:31N 38°48' W 076°25'5 9.2
2017-Sep-24 16:01N 38°53' W 076°24'4 9.0
2017-Sep-24 15:31N 38°57' W 076°24'4 8.7
2017-Sep-24 15:00N 39°01' W 076°22'14 8.0
2017-Sep-24 13:13N 39°14' W 076°15'5 8.1
2017-Sep-24 12:35N 39°19' W 076°13'1 8.3
2017-Sep-24 12:28N 39°20' W 076°12'4 8.3
2017-Sep-24 11:59N 39°22' W 076°07'4 8.0
2017-Sep-24 11:30N 39°23' W 076°02'2 3.3
2017-Sep-24 11:00N 39°23' W 076°00'0 0.0
2017-Sep-24 10:27N 39°23' W 076°00'0 0.0
2017-Sep-24 08:30N 39°23' W 076°00'0 0.0
2017-Sep-24 07:54N 39°23' W 076°00'0 0.0
2017-Sep-24 07:21N 39°23' W 076°00'0 0.0
2017-Sep-24 07:00N 39°23' W 076°00'0 0.0
2017-Sep-24 06:27N 39°23' W 076°00'0 0.0
2017-Sep-24 06:00N 39°23' W 076°00'0 0.0
2017-Sep-24 05:15N 39°23' W 076°00'0 0.0
2017-Sep-24 05:00N 39°23' W 076°00'0 0.0
2017-Sep-24 01:54N 39°23' W 076°00'0 0.0
2017-Sep-24 01:24N 39°23' W 076°00'0 0.0
2017-Sep-23 21:56N 39°23' W 076°00'2 5.5
2017-Sep-23 21:30N 39°25' W 076°02'5 9.5
2017-Sep-23 21:00N 39°28' W 075°58'5 9.6
2017-Sep-23 20:30N 39°31' W 075°53'5 9.5
2017-Sep-23 20:00N 39°32' W 075°47'55 1.3
2017-Sep-22 01:51N 38°57' W 074°53'50 5.8
2017-Sep-21 17:15N 39°35' W 074°11'3 9.3
2017-Sep-21 16:57N 39°38' W 074°09'4 9.3
2017-Sep-21 16:30N 39°41' W 074°07'5 9.2
2017-Sep-21 16:00N 39°46' W 074°04'50 2.2
2017-Sep-20 17:38N 40°36' W 074°03'110.6
2017-Sep-20 17:30N 40°37' W 074°03'5 9.7
2017-Sep-20 17:00N 40°42' W 074°01'  
2017-Sep-16 18:20N 41°10' W 072°37'3 7.5
2017-Sep-16 18:00N 41°11' W 072°34'4 7.3
2017-Sep-16 17:30N 41°12' W 072°30'4 7.2
2017-Sep-16 17:00N 41°14' W 072°26'4 7.3
2017-Sep-16 16:30N 41°15' W 072°21'  
Track history (hours):
 
Tides and Currents Weather Stations Pressure Air Temp Water Temp Dewpoint Dewpoint Depression Visibility Wind Speed Wind Dir Waves Ship Positions

Moon Tide

Owner: Nelson, Carl, Cambridge, MA. More information available from US FCC via Universal Licensing System and Coast Guard Vessel Documentation Center.

Last reported at 2017-Sep-26 16:07 UTC. Time now 2017-Oct-18 20:33 UTC.
Position N 36°45' W 076°18'.
Warning: this ship's position is 22 days out of date.

Length 19 m.

Type: Sailing vessel. MMSI: 367608290.

Date/timePositionNaut miles runAvg speedWind from/ knotsBaromVisibWave heightAir tempDewpointWater temp
2017-Sep-26 16:07N 36°45' W 076°18'1 8.4
2017-Sep-26 16:00N 36°46' W 076°18'1 2.2
2017-Sep-26 15:30N 36°47' W 076°18'2 4.3
2017-Sep-26 15:00N 36°49' W 076°17'1 2.2
2017-Sep-26 14:28N 36°50' W 076°18'0 0.0
2017-Sep-26 13:58N 36°50' W 076°18'0 0.0
2017-Sep-26 13:28N 36°50' W 076°18'0 0.0
2017-Sep-26 12:58N 36°50' W 076°18'0 0.0
2017-Sep-26 12:28N 36°50' W 076°18'0 0.0
2017-Sep-26 11:58N 36°50' W 076°18'0 0.0
2017-Sep-26 11:28N 36°50' W 076°18'0 0.0
2017-Sep-26 10:58N 36°50' W 076°18'0 0.0
2017-Sep-26 10:28N 36°50' W 076°18'0 0.0
2017-Sep-26 09:58N 36°50' W 076°18'0 0.0
2017-Sep-26 09:28N 36°50' W 076°18'0 0.0
2017-Sep-26 08:58N 36°50' W 076°18'0 0.0
2017-Sep-26 08:28N 36°50' W 076°18'0 0.0
2017-Sep-26 07:58N 36°50' W 076°18'0 0.0
2017-Sep-26 07:28N 36°50' W 076°18'0 0.0
2017-Sep-26 06:58N 36°50' W 076°18'0 0.0
2017-Sep-26 06:28N 36°50' W 076°18'0 0.0
2017-Sep-26 05:58N 36°50' W 076°18'0 0.0
2017-Sep-26 05:28N 36°50' W 076°18'0 0.0
2017-Sep-26 04:58N 36°50' W 076°18'0 0.0
2017-Sep-26 04:28N 36°50' W 076°18'0 0.0
2017-Sep-26 03:58N 36°50' W 076°18'0 0.0
2017-Sep-26 03:28N 36°50' W 076°18'0 0.0
2017-Sep-26 02:58N 36°50' W 076°18'0 0.0
2017-Sep-26 02:28N 36°50' W 076°18'0 0.0
2017-Sep-26 01:58N 36°50' W 076°18'0 0.0
2017-Sep-26 01:28N 36°50' W 076°18'0 0.0
2017-Sep-26 00:58N 36°50' W 076°18'0 0.0
2017-Sep-26 00:28N 36°50' W 076°18'0 0.0
2017-Sep-25 23:58N 36°50' W 076°18'0 0.0
2017-Sep-25 23:28N 36°50' W 076°18'0 0.0
2017-Sep-25 22:58N 36°50' W 076°18'0 0.0
2017-Sep-25 22:28N 36°50' W 076°18'0 0.0
2017-Sep-25 21:58N 36°50' W 076°18'0 0.0
2017-Sep-25 21:28N 36°50' W 076°18'1 1.1
2017-Sep-25 20:44N 36°51' W 076°18'2 7.7
2017-Sep-25 20:28N 36°52' W 076°20'57 8.0
2017-Sep-25 13:24N 37°48' W 076°12'4 8.9
2017-Sep-25 13:00N 37°52' W 076°11'13 1.3
2017-Sep-25 03:17N 38°03' W 076°20'0 0.0
2017-Sep-25 02:59N 38°03' W 076°20'40 4.1
2017-Sep-24 17:04N 38°43' W 076°26'1 9.0
2017-Sep-24 17:00N 38°44' W 076°26'5 9.4
2017-Sep-24 16:31N 38°48' W 076°25'5 9.2
2017-Sep-24 16:01N 38°53' W 076°24'4 9.0
2017-Sep-24 15:31N 38°57' W 076°24'4 8.7
2017-Sep-24 15:00N 39°01' W 076°22'14 8.0
2017-Sep-24 13:13N 39°14' W 076°15'5 8.1
2017-Sep-24 12:35N 39°19' W 076°13'1 8.3
2017-Sep-24 12:28N 39°20' W 076°12'4 8.3
2017-Sep-24 11:59N 39°22' W 076°07'4 8.0
2017-Sep-24 11:30N 39°23' W 076°02'2 3.3
2017-Sep-24 11:00N 39°23' W 076°00'0 0.0
2017-Sep-24 10:27N 39°23' W 076°00'0 0.0
2017-Sep-24 08:30N 39°23' W 076°00'0 0.0
2017-Sep-24 07:54N 39°23' W 076°00'0 0.0
2017-Sep-24 07:21N 39°23' W 076°00'0 0.0
2017-Sep-24 07:00N 39°23' W 076°00'0 0.0
2017-Sep-24 06:27N 39°23' W 076°00'0 0.0
2017-Sep-24 06:00N 39°23' W 076°00'0 0.0
2017-Sep-24 05:15N 39°23' W 076°00'0 0.0
2017-Sep-24 05:00N 39°23' W 076°00'0 0.0
2017-Sep-24 01:54N 39°23' W 076°00'0 0.0
2017-Sep-24 01:24N 39°23' W 076°00'0 0.0
2017-Sep-23 21:56N 39°23' W 076°00'2 5.5
2017-Sep-23 21:30N 39°25' W 076°02'5 9.5
2017-Sep-23 21:00N 39°28' W 075°58'5 9.6
2017-Sep-23 20:30N 39°31' W 075°53'5 9.5
2017-Sep-23 20:00N 39°32' W 075°47'55 1.3
2017-Sep-22 01:51N 38°57' W 074°53'50 5.8
2017-Sep-21 17:15N 39°35' W 074°11'3 9.3
2017-Sep-21 16:57N 39°38' W 074°09'4 9.3
2017-Sep-21 16:30N 39°41' W 074°07'5 9.2
2017-Sep-21 16:00N 39°46' W 074°04'50 2.2
2017-Sep-20 17:38N 40°36' W 074°03'110.6
2017-Sep-20 17:30N 40°37' W 074°03'5 9.7
2017-Sep-20 17:00N 40°42' W 074°01'  
2017-Sep-16 18:20N 41°10' W 072°37'3 7.5
2017-Sep-16 18:00N 41°11' W 072°34'4 7.3
2017-Sep-16 17:30N 41°12' W 072°30'4 7.2
2017-Sep-16 17:00N 41°14' W 072°26'4 7.3
2017-Sep-16 16:30N 41°15' W 072°21'  

Dump ship's entire track history